AAR906 RKPC-RKSS
Flight info
| Callsign | AAR906 |
|---|---|
| Flight time | N/A |
| Altitude | 27000 |
| Route | KAMIT2E KAMIT Y722 OLMEN OLMEN2T |
| Aircraft | A320/M-SDE3FGHIRWY/LB1 |
Departure
| Time | 2026-05-05 02:30 |
|---|---|
| Airport | Jeju International Airport (RKPC) |
Arrival
| Time | N/A |
|---|---|
| Airport | Gimpo International Airport (RKSS) |
| Time | Latitude | Longitude | Altitude | Speed | Heading |
|---|---|---|---|---|---|
| 2026-05-05 01:57 | 33.50772 | 126.49298 | 94 ft | 0 kts | 182° |
| 2026-05-05 02:19 | 33.50775 | 126.49299 | 93 ft | 2 kts | 182° |
| 2026-05-05 02:19 | 33.50791 | 126.49299 | 93 ft | 2 kts | 184° |
| 2026-05-05 02:19 | 33.50808 | 126.49300 | 93 ft | 2 kts | 184° |
| 2026-05-05 02:19 | 33.50824 | 126.49302 | 95 ft | 2 kts | 184° |
| 2026-05-05 02:20 | 33.50841 | 126.49303 | 92 ft | 2 kts | 186° |
| 2026-05-05 02:20 | 33.50857 | 126.49306 | 92 ft | 2 kts | 189° |
| 2026-05-05 02:20 | 33.50873 | 126.49310 | 92 ft | 2 kts | 199° |
| 2026-05-05 02:20 | 33.50888 | 126.49318 | 92 ft | 2 kts | 234° |
| 2026-05-05 02:21 | 33.50893 | 126.49327 | 94 ft | 0 kts | 243° |
| 2026-05-05 02:23 | 33.50891 | 126.49323 | 92 ft | 2 kts | 242° |
| 2026-05-05 02:23 | 33.50882 | 126.49304 | 93 ft | 4 kts | 240° |
| 2026-05-05 02:24 | 33.50865 | 126.49269 | 93 ft | 6 kts | 238° |
| 2026-05-05 02:24 | 33.50837 | 126.49221 | 93 ft | 8 kts | 237° |
| 2026-05-05 02:24 | 33.50806 | 126.49159 | 94 ft | 8 kts | 239° |
| 2026-05-05 02:24 | 33.50772 | 126.49092 | 93 ft | 11 kts | 239° |
| 2026-05-05 02:25 | 33.50730 | 126.49009 | 93 ft | 11 kts | 238° |
| 2026-05-05 02:25 | 33.50724 | 126.48914 | 94 ft | 13 kts | 303° |
| 2026-05-05 02:25 | 33.50792 | 126.48835 | 94 ft | 14 kts | 291° |
| 2026-05-05 02:25 | 33.50776 | 126.48759 | 94 ft | 15 kts | 238° |
| 2026-05-05 02:26 | 33.50715 | 126.48640 | 93 ft | 18 kts | 238° |
| 2026-05-05 02:26 | 33.50647 | 126.48503 | 94 ft | 20 kts | 240° |
| 2026-05-05 02:26 | 33.50570 | 126.48354 | 94 ft | 22 kts | 242° |
| 2026-05-05 02:26 | 33.50483 | 126.48191 | 93 ft | 24 kts | 236° |
| 2026-05-05 02:27 | 33.50404 | 126.48026 | 94 ft | 21 kts | 237° |
| 2026-05-05 02:27 | 33.50326 | 126.47875 | 94 ft | 21 kts | 240° |
| 2026-05-05 02:27 | 33.50249 | 126.47723 | 95 ft | 20 kts | 238° |
| 2026-05-05 02:27 | 33.50172 | 126.47570 | 95 ft | 22 kts | 238° |
| 2026-05-05 02:28 | 33.50084 | 126.47405 | 94 ft | 25 kts | 234° |
| 2026-05-05 02:28 | 33.49997 | 126.47234 | 93 ft | 22 kts | 238° |
| 2026-05-05 02:28 | 33.49930 | 126.47103 | 94 ft | 16 kts | 239° |
| 2026-05-05 02:28 | 33.49881 | 126.47001 | 94 ft | 12 kts | 250° |
| 2026-05-05 02:29 | 33.49921 | 126.46914 | 93 ft | 15 kts | 332° |
| 2026-05-05 02:29 | 33.50015 | 126.46899 | 92 ft | 14 kts | 28° |
| 2026-05-05 02:29 | 33.50055 | 126.46963 | 91 ft | 0 kts | 60° |
| 2026-05-05 02:29 | 33.50064 | 126.46983 | 90 ft | 12 kts | 60° |
| 2026-05-05 02:30 | 33.50273 | 126.47397 | 93 ft | 102 kts | 58° |
| 2026-05-05 02:30 | 33.50767 | 126.48358 | 97 ft | 166 kts | 58° |
| 2026-05-05 02:30 | 33.51457 | 126.49608 | 630 ft | 183 kts | 56° |
| 2026-05-05 02:30 | 33.52207 | 126.50846 | 1526 ft | 188 kts | 47° |
| 2026-05-05 02:31 | 33.53177 | 126.52025 | 1884 ft | 210 kts | 43° |
| 2026-05-05 02:31 | 33.54315 | 126.53293 | 2265 ft | 235 kts | 42° |
| 2026-05-05 02:31 | 33.55578 | 126.54682 | 2746 ft | 256 kts | 42° |
| 2026-05-05 02:31 | 33.56883 | 126.56121 | 3542 ft | 263 kts | 42° |
| 2026-05-05 02:32 | 33.58241 | 126.57631 | 4454 ft | 266 kts | 43° |
| 2026-05-05 02:32 | 33.59600 | 126.59158 | 5350 ft | 270 kts | 43° |
| 2026-05-05 02:32 | 33.60975 | 126.60715 | 6234 ft | 274 kts | 43° |
| 2026-05-05 02:32 | 33.62366 | 126.62292 | 7087 ft | 277 kts | 43° |
| 2026-05-05 02:33 | 33.63787 | 126.63904 | 7936 ft | 281 kts | 43° |
| 2026-05-05 02:33 | 33.65223 | 126.65533 | 8718 ft | 289 kts | 44° |
| 2026-05-05 02:33 | 33.66697 | 126.67206 | 9466 ft | 295 kts | 44° |
| 2026-05-05 02:33 | 33.68207 | 126.68915 | 10172 ft | 305 kts | 42° |
| 2026-05-05 02:34 | 33.70003 | 126.70443 | 10414 ft | 327 kts | 27° |
| 2026-05-05 02:34 | 33.72161 | 126.71416 | 10942 ft | 335 kts | 12° |
| 2026-05-05 02:34 | 33.74485 | 126.71781 | 11615 ft | 339 kts | 4° |
| 2026-05-05 02:34 | 33.76842 | 126.72021 | 12323 ft | 343 kts | 4° |
| 2026-05-05 02:35 | 33.79237 | 126.72273 | 13037 ft | 346 kts | 4° |
| 2026-05-05 02:35 | 33.81647 | 126.72529 | 13739 ft | 350 kts | 4° |
| 2026-05-05 02:35 | 33.84089 | 126.72792 | 14387 ft | 354 kts | 4° |
| 2026-05-05 02:35 | 33.86556 | 126.73058 | 15013 ft | 357 kts | 3° |
| 2026-05-05 02:36 | 33.89007 | 126.73317 | 15623 ft | 360 kts | 3° |
| 2026-05-05 02:36 | 33.91516 | 126.73580 | 16237 ft | 363 kts | 3° |
| 2026-05-05 02:36 | 33.94050 | 126.73846 | 16845 ft | 366 kts | 3° |
| 2026-05-05 02:36 | 33.96593 | 126.74114 | 17457 ft | 370 kts | 3° |
| 2026-05-05 02:37 | 33.99166 | 126.74385 | 18077 ft | 373 kts | 2° |
| 2026-05-05 02:37 | 34.01769 | 126.74658 | 18660 ft | 376 kts | 2° |
| 2026-05-05 02:37 | 34.04392 | 126.74931 | 19203 ft | 379 kts | 2° |
| 2026-05-05 02:37 | 34.07032 | 126.75208 | 19753 ft | 382 kts | 2° |
| 2026-05-05 02:38 | 34.09692 | 126.75487 | 20301 ft | 386 kts | 2° |
| 2026-05-05 02:38 | 34.12378 | 126.75771 | 20852 ft | 389 kts | 2° |
| 2026-05-05 02:38 | 34.15048 | 126.76053 | 21382 ft | 391 kts | 2° |
| 2026-05-05 02:38 | 34.17772 | 126.76341 | 21905 ft | 395 kts | 2° |
| 2026-05-05 02:39 | 34.20516 | 126.76632 | 22423 ft | 397 kts | 1° |
| 2026-05-05 02:39 | 34.23287 | 126.76929 | 22941 ft | 401 kts | 1° |
| 2026-05-05 02:39 | 34.26074 | 126.77229 | 23466 ft | 404 kts | 1° |
| 2026-05-05 02:39 | 34.28877 | 126.77528 | 23954 ft | 407 kts | 1° |
| 2026-05-05 02:40 | 34.31713 | 126.77828 | 24392 ft | 410 kts | 1° |
| 2026-05-05 02:40 | 34.34562 | 126.78133 | 24842 ft | 412 kts | 1° |
| 2026-05-05 02:40 | 34.37432 | 126.78442 | 25272 ft | 415 kts | 1° |
| 2026-05-05 02:40 | 34.40316 | 126.78750 | 25710 ft | 417 kts | 1° |
| 2026-05-05 02:41 | 34.43215 | 126.79058 | 26138 ft | 420 kts | 1° |
| 2026-05-05 02:41 | 34.46138 | 126.79366 | 26553 ft | 423 kts | 1° |
| 2026-05-05 02:41 | 34.49078 | 126.79677 | 26976 ft | 425 kts | 1° |
| 2026-05-05 02:41 | 34.52026 | 126.79990 | 27153 ft | 425 kts | 1° |
| 2026-05-05 02:42 | 34.54914 | 126.80304 | 27186 ft | 410 kts | 1° |
| 2026-05-05 02:42 | 34.57714 | 126.80614 | 27185 ft | 397 kts | 1° |
| 2026-05-05 02:42 | 34.60450 | 126.80911 | 27186 ft | 393 kts | 0° |
| 2026-05-05 02:42 | 34.62970 | 126.81179 | 27183 ft | 392 kts | 0° |
| 2026-05-05 02:43 | 34.65657 | 126.81460 | 27183 ft | 391 kts | 0° |
| 2026-05-05 02:43 | 34.68367 | 126.81743 | 27179 ft | 391 kts | 0° |
| 2026-05-05 02:43 | 34.71112 | 126.82032 | 27179 ft | 391 kts | 0° |
| 2026-05-05 02:43 | 34.73793 | 126.82315 | 27178 ft | 391 kts | 0° |
| 2026-05-05 02:44 | 34.76494 | 126.82602 | 27179 ft | 391 kts | 1° |
| 2026-05-05 02:44 | 34.79205 | 126.82893 | 27179 ft | 390 kts | 1° |
| 2026-05-05 02:44 | 34.81908 | 126.83186 | 27178 ft | 390 kts | 1° |
| 2026-05-05 02:44 | 34.84616 | 126.83481 | 27179 ft | 391 kts | 1° |
| 2026-05-05 02:45 | 34.87323 | 126.83776 | 27184 ft | 391 kts | 1° |
| 2026-05-05 02:45 | 34.90034 | 126.84072 | 27186 ft | 391 kts | 1° |
| 2026-05-05 02:45 | 34.92741 | 126.84366 | 27189 ft | 391 kts | 1° |
| 2026-05-05 02:45 | 34.95452 | 126.84658 | 27191 ft | 391 kts | 1° |
| 2026-05-05 02:46 | 34.98163 | 126.84947 | 27191 ft | 391 kts | 1° |
| 2026-05-05 02:46 | 35.00868 | 126.85237 | 27196 ft | 391 kts | 1° |
| 2026-05-05 02:46 | 35.03579 | 126.85530 | 27199 ft | 391 kts | 1° |
| 2026-05-05 02:46 | 35.06287 | 126.85823 | 27199 ft | 391 kts | 1° |
| 2026-05-05 02:47 | 35.08992 | 126.86116 | 27195 ft | 391 kts | 1° |
| 2026-05-05 02:47 | 35.11704 | 126.86410 | 27195 ft | 390 kts | 1° |
| 2026-05-05 02:47 | 35.14411 | 126.86703 | 27198 ft | 390 kts | 1° |
| 2026-05-05 02:47 | 35.17114 | 126.86997 | 27198 ft | 390 kts | 1° |
| 2026-05-05 02:48 | 35.19824 | 126.87293 | 27197 ft | 390 kts | 1° |
| 2026-05-05 02:48 | 35.22495 | 126.87585 | 27198 ft | 390 kts | 1° |
| 2026-05-05 02:48 | 35.25195 | 126.87880 | 27198 ft | 390 kts | 1° |
| 2026-05-05 02:48 | 35.27891 | 126.88172 | 27195 ft | 389 kts | 1° |
| 2026-05-05 02:49 | 35.30590 | 126.88461 | 27195 ft | 389 kts | 1° |
| 2026-05-05 02:49 | 35.33297 | 126.88750 | 27193 ft | 389 kts | 1° |
| 2026-05-05 02:49 | 35.33908 | 126.88815 | 27200 ft | 389 kts | 1° |